Time;durP1;ratioP1;P1;durP2;ratioP2;P2;SDS_P1;SDS_P2;PMS_P1;PMS_P2;Temp;Humidity;BMP_temperature;BMP_pressure;BME280_temperature;BME280_humidity;BME280_pressure;Samples;Min_cycle;Max_cycle;Signal;HPM_P1;HPM_P2
2021/12/20 00:00:36;;;;;;;18.23;7.63;;;;;;;4.75;100.00;102621.63;5098883;28;20051;-85
2021/12/20 00:03:02;;;;;;;15.27;6.80;;;;;;;4.80;100.00;102616.34;5093027;28;20031;-85
2021/12/20 00:05:27;;;;;;;15.23;6.85;;;;;;;4.79;100.00;102617.25;5105922;28;20040;-85
2021/12/20 00:07:53;;;;;;;16.65;7.03;;;;;;;4.74;100.00;102624.28;5109652;28;20023;-86
2021/12/20 00:10:19;;;;;;;13.18;6.45;;;;;;;4.78;100.00;102615.50;5108917;28;20080;-85
2021/12/20 00:12:45;;;;;;;14.55;4.78;;;;;;;4.74;100.00;102629.56;5086854;28;20546;-85
2021/12/20 00:15:11;;;;;;;10.70;4.03;;;;;;;4.74;99.62;102629.56;5091181;28;20028;-85
2021/12/20 00:17:37;;;;;;;13.88;4.18;;;;;;;4.75;99.08;102616.34;5110649;28;20098;-85
2021/12/20 00:20:04;;;;;;;11.07;4.43;;;;;;;4.77;99.62;102618.13;5109432;28;20572;-86
2021/12/20 00:22:29;;;;;;;9.93;4.55;;;;;;;4.78;100.00;102615.50;5107674;28;20028;-85
2021/12/20 00:24:55;;;;;;;11.43;4.03;;;;;;;4.77;100.00;102629.56;5109578;28;20485;-85
2021/12/20 00:27:20;;;;;;;14.52;4.60;;;;;;;4.76;99.50;102622.50;5109005;28;20044;-85
2021/12/20 00:29:49;;;;;;;13.13;4.57;;;;;;;4.77;99.64;102619.00;5090569;28;20024;-85
2021/12/20 00:32:16;;;;;;;9.95;4.35;;;;;;;4.79;100.00;102619.00;5106737;28;20023;-86
2021/12/20 00:34:42;;;;;;;12.70;5.10;;;;;;;4.76;100.00;102619.88;5108854;28;20118;-86
2021/12/20 00:42:44;;;;;;;14.30;5.45;;;;;;;4.78;100.00;102599.66;5107762;28;20058;-86
2021/12/20 00:45:11;;;;;;;13.75;5.78;;;;;;;4.73;100.00;102601.41;5106884;28;20409;-86
2021/12/20 00:47:37;;;;;;;14.32;6.45;;;;;;;4.76;100.00;102598.75;5108692;28;20031;-86
2021/12/20 00:50:05;;;;;;;12.02;6.07;;;;;;;4.75;100.00;102602.28;5109029;28;20039;-86
2021/12/20 00:52:30;;;;;;;13.65;5.88;;;;;;;4.75;100.00;102604.94;5107328;28;20068;-86
2021/12/20 00:54:56;;;;;;;18.45;5.47;;;;;;;4.70;100.00;102601.41;5108662;28;20078;-86
2021/12/20 00:57:21;;;;;;;17.98;5.75;;;;;;;4.74;100.00;102611.97;5109219;28;20515;-84
2021/12/20 00:59:46;;;;;;;13.35;5.47;;;;;;;4.74;100.00;102608.44;5108925;28;20023;-85
2021/12/20 01:02:11;;;;;;;13.60;5.32;;;;;;;4.71;100.00;102588.22;5104115;28;20032;-86
2021/12/20 01:04:37;;;;;;;12.48;5.63;;;;;;;4.69;100.00;102603.16;5107064;28;20070;-86
2021/12/20 01:07:03;;;;;;;15.60;5.47;;;;;;;4.72;99.88;102610.19;5088423;28;20062;-86
2021/12/20 01:09:28;;;;;;;13.45;4.82;;;;;;;4.72;98.25;102605.81;5089145;28;20036;-86
2021/12/20 01:12:01;;;;;;;13.02;4.13;;;;;;;4.72;97.69;102612.81;5096997;28;20071;-85
2021/12/20 01:14:27;;;;;;;12.88;4.03;;;;;;;4.73;98.15;102619.88;5089130;28;20043;-86
2021/12/20 01:16:56;;;;;;;12.52;4.50;;;;;;;4.72;97.52;102610.19;5091602;28;20070;-85
2021/12/20 01:19:22;;;;;;;16.35;4.63;;;;;;;4.70;97.58;102615.47;5088709;28;20028;-85
2021/12/20 01:21:47;;;;;;;15.80;4.65;;;;;;;4.71;97.97;102625.13;5096084;28;20066;-85
2021/12/20 01:24:12;;;;;;;12.18;4.35;;;;;;;4.70;97.92;102618.09;5092720;28;20027;-85
2021/12/20 01:26:38;;;;;;;15.52;4.50;;;;;;;4.69;97.86;102611.09;5104756;28;20495;-86
2021/12/20 01:29:03;;;;;;;18.38;4.30;;;;;;;4.69;97.88;102608.44;5089438;28;20034;-85
2021/12/20 01:31:28;;;;;;;14.02;4.43;;;;;;;4.66;97.67;102600.53;5107140;28;20028;-85
2021/12/20 01:33:53;;;;;;;9.48;3.72;;;;;;;4.68;97.42;102603.16;5103415;28;20097;-85
2021/12/20 01:36:19;;;;;;;21.40;4.82;;;;;;;4.67;97.66;102610.19;5103775;28;20058;-85
2021/12/20 01:38:44;;;;;;;19.45;4.30;;;;;;;4.68;97.63;102611.06;5099099;28;20461;-85
2021/12/20 01:41:10;;;;;;;13.50;3.88;;;;;;;4.66;97.07;102600.53;5092092;28;20015;-86
2021/12/20 01:43:37;;;;;;;12.75;3.70;;;;;;;4.66;97.09;102603.16;5090902;28;20385;-86
2021/12/20 01:46:03;;;;;;;16.33;3.70;;;;;;;4.62;96.62;102597.88;5087467;28;20028;-86
2021/12/20 01:48:30;;;;;;;17.77;4.95;;;;;;;4.63;96.12;102604.91;5091129;28;20040;-86
2021/12/20 01:53:35;;;;;;;10.65;3.90;;;;;;;4.61;96.97;102602.28;5098354;28;20032;-85
2021/12/20 01:56:00;;;;;;;16.50;4.47;;;;;;;4.60;96.41;102602.25;5096969;28;20032;-87
2021/12/20 01:58:28;;;;;;;13.35;4.07;;;;;;;4.57;96.67;102597.88;5100260;28;20028;-87
2021/12/20 02:03:39;;;;;;;14.07;3.70;;;;;;;4.60;95.19;102599.59;5095554;28;20110;-86
2021/12/20 02:06:10;;;;;;;14.40;3.90;;;;;;;4.59;95.46;102596.09;5106707;28;20495;-86
2021/12/20 02:08:36;;;;;;;19.98;4.05;;;;;;;4.58;95.02;102598.75;5089988;28;20507;-87
2021/12/20 02:11:09;;;;;;;12.00;4.05;;;;;;;4.57;94.90;102589.09;5107689;28;20031;-86
2021/12/20 02:13:34;;;;;;;13.88;3.60;;;;;;;4.56;94.96;102593.47;5106434;28;20078;-86
2021/12/20 02:16:00;;;;;;;14.80;3.30;;;;;;;4.57;95.05;102592.59;5107174;28;20055;-86
2021/12/20 02:18:28;;;;;;;13.38;3.63;;;;;;;4.56;94.61;102590.84;5108441;28;20031;-86
2021/12/20 02:20:53;;;;;;;11.15;3.55;;;;;;;4.55;94.35;102596.09;5108002;28;20476;-86
2021/12/20 02:23:19;;;;;;;14.43;3.70;;;;;;;4.55;94.69;102598.72;5105315;28;20107;-86
2021/12/20 02:25:45;;;;;;;12.43;3.20;;;;;;;4.52;93.45;102593.47;5106835;28;20469;-86
2021/12/20 02:28:15;;;;;;;13.20;3.30;;;;;;;4.52;92.74;102602.25;5107792;28;20024;-86
2021/12/20 02:30:52;;;;;;;14.27;3.22;;;;;;;4.54;92.55;102597.84;5107250;28;20074;-86
2021/12/20 02:38:51;;;;;;;15.43;3.58;;;;;;;4.53;92.71;102590.81;5111989;28;20093;-86
2021/12/20 02:41:24;;;;;;;14.65;3.70;;;;;;;4.50;93.46;102586.41;5112021;28;20024;-87
2021/12/20 02:43:54;;;;;;;16.10;3.27;;;;;;;4.53;93.31;102576.75;5109123;28;20594;-86
2021/12/20 02:49:02;;;;;;;18.52;3.20;;;;;;;4.53;93.17;102590.81;5112551;28;20110;-86
2021/12/20 02:51:28;;;;;;;15.43;3.83;;;;;;;4.45;92.31;102577.63;5111800;28;20396;-86
2021/12/20 02:53:55;;;;;;;11.02;3.17;;;;;;;4.50;91.81;102583.78;5109165;28;20019;-87
2021/12/20 02:56:20;;;;;;;20.73;3.67;;;;;;;4.49;92.01;102582.03;5111632;28;20503;-86
2021/12/20 02:58:46;;;;;;;16.05;3.60;;;;;;;4.50;92.24;102593.44;5111328;28;20031;-86
2021/12/20 03:01:12;;;;;;;18.83;3.85;;;;;;;4.50;92.17;102590.81;5109979;28;20023;-87
2021/12/20 03:03:37;;;;;;;17.95;3.75;;;;;;;4.44;91.54;102583.78;5087698;28;20032;-86
2021/12/20 03:06:15;;;;;;;15.80;4.15;;;;;;;4.48;91.74;102590.81;5102311;28;20031;-86
2021/12/20 03:08:44;;;;;;;16.85;3.10;;;;;;;4.47;91.21;102599.63;5101325;28;20064;-86
2021/12/20 03:11:10;;;;;;;15.32;3.25;;;;;;;4.44;91.60;102594.31;5091137;28;20489;-86
2021/12/20 03:13:35;;;;;;;17.40;4.85;;;;;;;4.46;92.18;102587.28;5099459;28;20107;-86
2021/12/20 03:16:01;;;;;;;20.90;3.58;;;;;;;4.45;91.50;102584.66;5106215;28;20023;-86
2021/12/20 03:18:26;;;;;;;15.63;3.33;;;;;;;4.43;91.96;102579.38;5093453;28;20059;-87
2021/12/20 03:20:52;;;;;;;13.40;3.10;;;;;;;4.42;92.08;102577.59;5099593;28;20028;-86
2021/12/20 03:23:17;;;;;;;15.88;3.05;;;;;;;4.43;91.43;102579.38;5102374;28;20463;-86
2021/12/20 03:25:42;;;;;;;14.35;3.42;;;;;;;4.42;91.42;102574.97;5099733;28;20024;-86
2021/12/20 03:28:07;;;;;;;13.15;3.90;;;;;;;4.43;91.96;102586.38;5090240;28;20472;-86
2021/12/20 03:30:33;;;;;;;22.80;3.30;;;;;;;4.43;91.50;102589.94;5100072;28;20035;-87
2021/12/20 03:32:58;;;;;;;19.60;3.80;;;;;;;4.42;91.50;102582.00;5094303;28;20088;-86
2021/12/20 03:35:23;;;;;;;19.50;3.60;;;;;;;4.42;91.68;102584.63;5090861;28;20055;-86
2021/12/20 03:37:49;;;;;;;16.25;3.25;;;;;;;4.41;92.10;102586.41;5091157;28;20385;-87
2021/12/20 03:40:14;;;;;;;17.20;3.90;;;;;;;4.41;92.43;102591.66;5097989;28;20030;-86
2021/12/20 03:42:45;;;;;;;20.73;4.22;;;;;;;4.37;91.04;102587.25;5106047;28;20028;-86
2021/12/20 03:45:13;;;;;;;18.02;3.55;;;;;;;4.31;90.27;102579.34;5091359;28;20544;-86
2021/12/20 03:47:38;;;;;;;16.38;3.95;;;;;;;4.39;89.55;102590.81;5104139;28;20031;-87
2021/12/20 03:50:04;;;;;;;15.20;3.30;;;;;;;4.38;90.79;102589.03;5093306;28;20046;-86
2021/12/20 03:52:29;;;;;;;16.50;4.15;;;;;;;4.37;91.29;102576.72;5097747;28;20084;-86
2021/12/20 03:54:54;;;;;;;15.85;3.53;;;;;;;4.33;90.78;102568.81;5105462;28;20857;-86
2021/12/20 03:57:19;;;;;;;18.02;3.47;;;;;;;4.33;91.38;102582.84;5090732;28;20024;-86
2021/12/20 03:59:47;;;;;;;19.05;3.95;;;;;;;4.33;91.51;102582.84;5105573;28;20055;-87
2021/12/20 04:02:17;;;;;;;14.93;3.28;;;;;;;4.31;91.27;102587.25;5092762;28;20036;-86
2021/12/20 04:04:42;;;;;;;18.98;3.00;;;;;;;4.32;90.63;102589.00;5104698;28;20512;-87
2021/12/20 04:07:07;;;;;;;14.38;3.38;;;;;;;4.27;91.07;102574.94;5099337;28;20039;-86
2021/12/20 04:09:33;;;;;;;18.10;3.20;;;;;;;4.28;89.37;102565.28;5108426;28;20111;-87
2021/12/20 04:11:58;;;;;;;16.42;3.10;;;;;;;4.27;91.45;102567.03;5103137;28;20435;-86
2021/12/20 04:14:23;;;;;;;24.30;4.05;;;;;;;4.29;91.39;102574.94;5090424;28;20059;-86
2021/12/20 04:16:48;;;;;;;16.73;3.63;;;;;;;4.26;91.53;102575.81;5094652;28;20024;-86
2021/12/20 04:19:14;;;;;;;24.38;4.50;;;;;;;4.22;91.94;102568.75;5102117;28;20433;-86
2021/12/20 04:21:39;;;;;;;17.83;3.92;;;;;;;4.26;90.94;102581.06;5093530;28;20512;-86
2021/12/20 04:24:04;;;;;;;14.75;4.03;;;;;;;4.27;89.80;102581.97;5090670;28;20032;-86
2021/12/20 04:26:30;;;;;;;17.15;4.20;;;;;;;4.26;89.06;102578.44;5091395;28;20347;-86
2021/12/20 04:28:55;;;;;;;19.35;4.18;;;;;;;4.27;90.14;102588.13;5072114;28;20024;-86
2021/12/20 04:31:21;;;;;;;16.67;3.90;;;;;;;4.27;89.28;102588.13;5104115;28;20024;-86
2021/12/20 04:33:46;;;;;;;18.60;4.00;;;;;;;4.27;88.43;102579.34;5100536;28;20389;-86
2021/12/20 04:36:11;;;;;;;19.63;4.15;;;;;;;4.27;88.99;102577.59;5101486;28;20035;-86
2021/12/20 04:38:37;;;;;;;18.73;3.85;;;;;;;4.26;88.58;102573.16;5088236;28;20039;-86
2021/12/20 04:41:02;;;;;;;17.02;3.13;;;;;;;4.27;88.67;102585.50;5092888;28;20365;-86
2021/12/20 04:43:28;;;;;;;19.05;3.55;;;;;;;4.26;87.94;102578.44;5091481;28;20437;-86
2021/12/20 04:45:53;;;;;;;15.35;3.22;;;;;;;4.25;89.31;102568.78;5089797;28;20127;-87
2021/12/20 04:48:18;;;;;;;16.50;3.67;;;;;;;4.23;90.53;102574.06;5089149;28;20032;-86
2021/12/20 04:50:43;;;;;;;19.15;4.05;;;;;;;4.23;90.59;102573.19;5095316;28;20023;-86
2021/12/20 04:53:09;;;;;;;16.88;3.65;;;;;;;4.24;90.96;102580.19;5076332;28;20032;-86
2021/12/20 04:55:34;;;;;;;19.52;3.85;;;;;;;4.23;89.54;102589.00;5089086;28;20069;-86
2021/12/20 04:58:01;;;;;;;18.23;3.92;;;;;;;4.21;89.76;102577.56;5092445;28;20023;-87
2021/12/20 05:00:29;;;;;;;18.67;3.55;;;;;;;4.23;89.16;102583.72;5097524;28;20019;-86
2021/12/20 05:02:55;;;;;;;16.13;3.67;;;;;;;4.20;89.37;102578.44;5104426;28;20422;-86
2021/12/20 05:05:21;;;;;;;15.90;3.67;;;;;;;4.17;89.38;102573.16;5090162;28;20123;-86
2021/12/20 05:07:47;;;;;;;19.52;3.75;;;;;;;4.21;87.13;102574.91;5109124;28;20034;-86
2021/12/20 05:10:24;;;;;;;18.63;3.90;;;;;;;4.22;87.79;102576.66;5105432;28;20384;-86
2021/12/20 05:12:50;;;;;;;22.17;3.20;;;;;;;4.21;86.79;102578.44;5091922;28;20024;-86
2021/12/20 05:15:15;;;;;;;19.30;3.65;;;;;;;4.22;86.66;102581.94;5104022;28;20469;-86
2021/12/20 05:17:40;;;;;;;18.35;3.90;;;;;;;4.18;87.17;102581.06;5109242;28;20053;-86
2021/12/20 05:20:06;;;;;;;15.55;3.15;;;;;;;4.21;86.91;102588.97;5108145;28;20043;-86
2021/12/20 05:22:32;;;;;;;22.92;4.07;;;;;;;4.18;86.87;102586.34;5091025;28;20066;-86
2021/12/20 05:24:57;;;;;;;21.38;3.63;;;;;;;4.20;86.36;102592.50;5091194;28;20033;-86
2021/12/20 05:27:22;;;;;;;16.30;3.30;;;;;;;4.19;87.63;102587.22;5093118;28;20068;-85
2021/12/20 05:29:49;;;;;;;18.52;3.55;;;;;;;4.20;87.22;102581.94;5088846;28;20028;-87
2021/12/20 05:32:15;;;;;;;15.70;3.97;;;;;;;4.19;87.74;102598.66;5100466;28;20023;-87
2021/12/20 05:34:40;;;;;;;21.38;3.33;;;;;;;4.15;86.66;102586.31;5093686;28;20403;-85
2021/12/20 05:37:05;;;;;;;21.13;3.67;;;;;;;4.17;85.29;102584.56;5108181;28;20126;-86
2021/12/20 05:39:30;;;;;;;16.98;4.45;;;;;;;4.16;85.32;102574.03;5109334;28;20053;-87
2021/12/20 05:41:56;;;;;;;20.98;3.25;;;;;;;4.18;85.77;102595.97;5089913;28;20051;-87
2021/12/20 05:44:21;;;;;;;20.10;3.72;;;;;;;4.17;86.19;102587.19;5109035;28;20032;-86
2021/12/20 05:46:46;;;;;;;15.63;3.80;;;;;;;4.17;85.89;102591.59;5088748;28;20484;-86
2021/12/20 05:49:12;;;;;;;13.27;3.50;;;;;;;4.16;87.06;102592.47;5090861;28;20028;-86
2021/12/20 05:51:38;;;;;;;20.52;3.42;;;;;;;4.15;87.46;102588.97;5094679;28;20061;-86
2021/12/20 05:54:03;;;;;;;15.98;3.75;;;;;;;4.14;87.42;102588.94;5084337;28;20381;-86
2021/12/20 05:56:28;;;;;;;12.63;3.28;;;;;;;4.15;88.07;102594.22;5090398;28;20097;-86
2021/12/20 05:58:54;;;;;;;22.77;4.70;;;;;;;4.15;87.32;102596.00;5095488;28;20019;-86
2021/12/20 06:01:19;;;;;;;23.38;4.15;;;;;;;4.13;87.60;102587.19;5093936;28;20477;-86
2021/12/20 06:03:44;;;;;;;16.90;4.45;;;;;;;4.14;87.94;102594.22;5107525;28;20062;-87
2021/12/20 06:06:12;;;;;;;20.73;4.22;;;;;;;4.10;88.89;102593.34;5093913;28;20029;-87
2021/12/20 06:08:37;;;;;;;18.48;4.13;;;;;;;4.12;88.15;102601.25;5087810;28;20120;-86
2021/12/20 06:11:02;;;;;;;20.05;4.50;;;;;;;4.11;87.73;102588.94;5100849;28;20138;-87
2021/12/20 06:13:28;;;;;;;17.25;3.55;;;;;;;4.04;86.86;102585.41;5088018;28;20036;-87
2021/12/20 06:15:53;;;;;;;21.33;4.40;;;;;;;4.09;87.35;102601.22;5100811;28;20051;-86
2021/12/20 06:18:18;;;;;;;12.02;3.63;;;;;;;4.10;87.29;102609.16;5095031;28;20073;-87
2021/12/20 06:20:44;;;;;;;17.77;3.45;;;;;;;4.10;87.35;102598.63;5089588;28;20032;-87
2021/12/20 06:23:11;;;;;;;14.25;3.72;;;;;;;4.10;86.78;102605.66;5103895;28;20032;-85
2021/12/20 06:25:36;;;;;;;19.92;3.50;;;;;;;4.07;86.27;102606.50;5106484;28;20066;-85
2021/12/20 06:28:02;;;;;;;21.42;3.67;;;;;;;4.09;87.18;102607.38;5087740;28;20052;-86
2021/12/20 06:30:27;;;;;;;18.95;4.65;;;;;;;4.10;86.86;102614.44;5092690;28;20572;-87
2021/12/20 06:32:52;;;;;;;18.75;4.10;;;;;;;4.05;85.82;102604.72;5095101;28;20055;-85
2021/12/20 06:35:18;;;;;;;17.27;3.90;;;;;;;4.08;86.38;102610.88;5094797;28;20429;-87
2021/12/20 06:37:47;;;;;;;20.02;4.00;;;;;;;4.09;86.05;102612.63;5097952;28;20035;-87
2021/12/20 06:40:12;;;;;;;22.75;4.38;;;;;;;4.07;85.54;102608.25;5092688;28;20075;-86
2021/12/20 06:42:38;;;;;;;21.35;3.92;;;;;;;4.08;85.40;102617.91;5086032;28;20484;-86
2021/12/20 06:45:06;;;;;;;24.60;3.88;;;;;;;4.05;85.82;102615.25;5101358;28;20319;-86
2021/12/20 06:47:31;;;;;;;18.27;4.07;;;;;;;4.03;84.77;102611.75;5096795;28;20102;-86
2021/12/20 06:49:57;;;;;;;15.57;3.70;;;;;;;4.07;85.79;102627.56;5105491;28;20106;-86
2021/12/20 06:52:22;;;;;;;21.80;4.05;;;;;;;4.05;84.57;102626.69;5095520;28;20071;-86
2021/12/20 06:54:49;;;;;;;16.80;3.90;;;;;;;4.04;84.10;102624.03;5090472;28;20020;-86
2021/12/20 06:57:14;;;;;;;20.15;4.53;;;;;;;4.03;84.41;102611.75;5107083;28;20031;-86
2021/12/20 06:59:39;;;;;;;15.75;3.67;;;;;;;4.04;83.09;102622.28;5089610;28;20412;-86
2021/12/20 07:02:05;;;;;;;19.70;3.55;;;;;;;4.05;85.38;102625.81;5073972;28;20020;-86
2021/12/20 07:04:30;;;;;;;13.80;3.50;;;;;;;4.03;83.50;102628.44;5087799;28;20040;-86
2021/12/20 07:06:55;;;;;;;18.10;4.10;;;;;;;4.00;83.05;102617.88;5087853;28;20035;-87
2021/12/20 07:09:20;;;;;;;19.70;3.80;;;;;;;4.04;80.72;102629.31;5097417;28;20453;-87
2021/12/20 07:11:46;;;;;;;19.23;3.80;;;;;;;4.03;81.55;102630.19;5091669;28;20016;-87
2021/12/20 07:14:12;;;;;;;18.08;3.65;;;;;;;4.02;82.38;102621.41;5092079;28;20107;-87
2021/12/20 07:16:40;;;;;;;18.50;2.75;;;;;;;4.00;80.49;102620.50;5091073;28;20016;-87
2021/12/20 07:19:05;;;;;;;24.20;3.65;;;;;;;4.03;81.56;102633.72;5085710;28;20538;-86
2021/12/20 07:21:30;;;;;;;16.90;3.53;;;;;;;4.03;83.57;102638.09;5090000;28;20099;-86
2021/12/20 07:23:56;;;;;;;14.35;3.78;;;;;;;4.02;81.36;102638.97;5093550;28;20380;-85
2021/12/20 07:26:22;;;;;;;22.40;3.95;;;;;;;4.00;81.87;102638.94;5110007;28;20102;-85
2021/12/20 07:28:47;;;;;;;14.98;3.28;;;;;;;3.96;82.43;102630.16;5111681;28;20537;-85
2021/12/20 07:31:13;;;;;;;17.45;4.05;;;;;;;3.99;82.33;102642.47;5099796;28;20023;-86
2021/12/20 07:33:40;;;;;;;22.85;3.42;;;;;;;3.97;81.90;102634.56;5108870;28;20039;-85
2021/12/20 07:36:05;;;;;;;16.10;3.03;;;;;;;3.98;82.44;102630.19;5104780;28;20027;-85
2021/12/20 07:38:31;;;;;;;16.80;3.33;;;;;;;3.97;83.69;102636.28;5101555;28;20374;-86
2021/12/20 07:40:57;;;;;;;14.95;3.42;;;;;;;3.97;81.30;102639.84;5091207;28;20391;-85
2021/12/20 07:43:22;;;;;;;19.30;3.90;;;;;;;3.99;80.39;102639.84;5095216;28;20051;-85
2021/12/20 07:45:48;;;;;;;15.30;3.00;;;;;;;3.99;81.14;102638.06;5097000;28;20028;-86
2021/12/20 07:48:16;;;;;;;18.98;4.25;;;;;;;4.00;79.43;102639.81;5106080;28;20027;-86
2021/12/20 07:50:41;;;;;;;14.82;3.08;;;;;;;4.02;79.85;102636.34;5100172;28;20024;-86
2021/12/20 07:53:07;;;;;;;14.65;3.22;;;;;;;4.00;79.42;102639.81;5102731;28;20495;-86
2021/12/20 07:55:32;;;;;;;15.23;3.60;;;;;;;4.02;81.08;102639.84;5109588;28;20028;-85
2021/12/20 07:57:59;;;;;;;16.83;3.35;;;;;;;4.03;80.49;102643.38;5098211;28;20024;-87
2021/12/20 08:00:25;;;;;;;17.92;3.15;;;;;;;3.97;79.53;102639.84;5107677;28;20023;-87
2021/12/20 08:02:51;;;;;;;14.80;2.72;;;;;;;4.05;80.28;102644.25;5096264;28;20057;-87
2021/12/20 08:05:19;;;;;;;14.07;3.10;;;;;;;4.06;80.12;102651.28;5098409;28;20048;-86
2021/12/20 08:07:47;;;;;;;16.15;3.35;;;;;;;4.07;78.88;102650.41;5099400;28;20417;-85
2021/12/20 08:10:13;;;;;;;16.27;3.20;;;;;;;4.05;80.40;102646.88;5103831;28;20024;-86
2021/12/20 08:12:38;;;;;;;16.23;3.70;;;;;;;4.10;79.65;102653.06;5105644;28;20034;-87
2021/12/20 08:15:04;;;;;;;14.50;3.25;;;;;;;4.09;79.49;102651.28;5107376;28;20034;-87
2021/12/20 08:17:31;;;;;;;18.67;4.25;;;;;;;4.10;80.42;102651.31;5106730;28;20035;-87
2021/12/20 08:19:57;;;;;;;17.40;3.63;;;;;;;4.02;81.44;102642.50;5100882;28;20039;-85
2021/12/20 08:22:25;;;;;;;14.60;3.28;;;;;;;4.01;79.07;102640.72;5099517;28;20027;-86
2021/12/20 08:24:50;;;;;;;16.75;3.13;;;;;;;4.11;80.53;102644.28;5103851;28;20036;-87
2021/12/20 08:27:15;;;;;;;20.15;3.42;;;;;;;4.18;80.75;102646.06;5077648;28;20038;-86
2021/12/20 08:29:40;;;;;;;13.70;3.38;;;;;;;4.20;80.88;102655.75;5106115;28;20059;-86
2021/12/20 08:32:06;;;;;;;16.55;4.53;;;;;;;4.16;80.50;102653.97;5103256;28;20032;-86
2021/12/20 08:34:31;;;;;;;17.70;3.67;;;;;;;4.21;80.01;102653.97;5099807;28;20650;-86
2021/12/20 08:36:59;;;;;;;15.00;3.20;;;;;;;4.25;79.80;102664.53;5099541;28;20073;-87
2021/12/20 08:39:24;;;;;;;11.43;2.92;;;;;;;4.26;81.62;102665.41;5106303;28;20038;-86
2021/12/20 08:41:49;;;;;;;16.80;3.20;;;;;;;4.24;80.17;102656.66;5103916;28;20031;-87
2021/12/20 08:44:14;;;;;;;14.95;3.00;;;;;;;4.30;80.58;102658.41;5105898;28;20035;-87
2021/12/20 08:46:40;;;;;;;18.17;4.05;;;;;;;4.32;80.69;102659.31;5105324;28;20027;-86
2021/12/20 08:49:06;;;;;;;17.67;2.90;;;;;;;4.34;81.15;102658.44;5105985;28;20035;-85
2021/12/20 08:51:32;;;;;;;15.82;3.13;;;;;;;4.37;80.60;102653.19;5103680;28;20074;-86
2021/12/20 08:53:57;;;;;;;18.35;4.00;;;;;;;4.45;81.69;102663.75;5105357;28;20098;-85
2021/12/20 08:56:23;;;;;;;15.88;3.42;;;;;;;4.46;80.03;102669.03;5102240;27;20063;-86
2021/12/20 08:58:48;;;;;;;15.10;3.75;;;;;;;4.48;79.58;102659.38;5098316;28;20035;-85
2021/12/20 09:01:14;;;;;;;13.40;3.65;;;;;;;4.55;79.20;102669.94;5090161;28;20494;-85
2021/12/20 09:03:39;;;;;;;11.43;3.65;;;;;;;4.50;78.62;102652.34;5095713;28;20039;-85
2021/12/20 09:06:05;;;;;;;14.30;3.22;;;;;;;4.57;79.95;102655.88;5103512;28;20100;-85
2021/12/20 09:08:31;;;;;;;19.27;3.83;;;;;;;4.55;79.09;102662.91;5101395;28;20115;-85
2021/12/20 09:10:57;;;;;;;15.40;3.28;;;;;;;4.60;77.88;102673.47;5093603;28;20039;-85
2021/12/20 09:13:22;;;;;;;15.88;3.60;;;;;;;4.57;78.14;102658.53;5090792;28;20023;-85
2021/12/20 09:15:48;;;;;;;13.68;3.20;;;;;;;4.62;78.61;102672.59;5080911;28;20024;-86
2021/12/20 09:18:13;;;;;;;12.00;2.90;;;;;;;4.66;79.13;102668.22;5103747;28;20038;-85
2021/12/20 09:20:39;;;;;;;15.45;2.75;;;;;;;4.67;79.62;102662.94;5085248;28;20028;-85
2021/12/20 09:23:07;;;;;;;14.27;3.00;;;;;;;4.67;78.16;102669.97;5103419;28;20075;-85
2021/12/20 09:25:35;;;;;;;17.00;3.53;;;;;;;4.72;79.27;102678.78;5104767;28;20065;-86
2021/12/20 09:28:04;;;;;;;13.52;3.08;;;;;;;4.74;79.37;102679.66;5104762;28;20061;-86
2021/12/20 09:30:30;;;;;;;11.82;2.90;;;;;;;4.79;79.51;102687.59;5099221;28;20028;-87
2021/12/20 09:32:56;;;;;;;10.13;3.22;;;;;;;4.82;80.13;102683.22;5098123;28;20567;-87
2021/12/20 09:35:22;;;;;;;17.48;3.88;;;;;;;4.81;79.45;102676.19;5104474;28;20026;-86
2021/12/20 09:37:50;;;;;;;10.57;2.97;;;;;;;4.84;79.78;102675.28;5089071;28;20038;-87
2021/12/20 09:40:17;;;;;;;14.45;3.30;;;;;;;4.87;79.52;102677.94;5086951;28;20024;-87
2021/12/20 09:42:48;;;;;;;13.68;3.05;;;;;;;4.89;78.75;102681.44;5101111;28;20479;-86
2021/12/20 09:45:17;;;;;;;18.98;3.78;;;;;;;4.88;78.82;102685.84;5104463;28;20031;-86
2021/12/20 09:47:43;;;;;;;17.40;3.28;;;;;;;4.94;80.04;102699.06;5099405;28;20309;-86
2021/12/20 09:50:09;;;;;;;13.15;2.72;;;;;;;4.92;79.06;102692.91;5101086;28;20039;-86
2021/12/20 09:52:34;;;;;;;9.38;3.40;;;;;;;4.97;79.96;102699.09;5099898;28;20679;-86
2021/12/20 09:54:59;;;;;;;13.48;3.20;;;;;;;4.99;79.86;102694.69;5103597;28;20032;-87
2021/12/20 09:57:25;;;;;;;20.83;3.78;;;;;;;5.02;78.40;102699.09;5102506;28;20076;-87
2021/12/20 09:59:51;;;;;;;14.10;3.72;;;;;;;5.03;78.44;102695.56;5102744;28;20429;-86
2021/12/20 10:02:20;;;;;;;9.90;3.38;;;;;;;5.05;78.33;102698.19;5072553;28;20492;-86
2021/12/20 10:04:45;;;;;;;13.63;3.10;;;;;;;5.06;78.23;102692.03;5097746;28;20101;-87
2021/12/20 10:07:11;;;;;;;17.50;3.33;;;;;;;5.08;78.37;102693.81;5095561;28;20039;-86
2021/12/20 10:09:40;;;;;;;17.73;3.47;;;;;;;5.10;78.16;102691.16;5087271;28;20459;-87
2021/12/20 10:12:16;;;;;;;11.07;3.55;;;;;;;5.15;78.79;102697.34;5100949;28;20028;-86
2021/12/20 10:14:51;;;;;;;16.25;3.60;;;;;;;5.15;78.34;102697.34;5104100;28;20027;-87
2021/12/20 10:17:16;;;;;;;11.25;4.15;;;;;;;5.15;78.32;102697.34;5103602;28;20343;-87
2021/12/20 10:19:42;;;;;;;16.27;4.03;;;;;;;5.18;77.90;102705.25;5104389;28;20059;-87
2021/12/20 10:22:28;;;;;;;19.85;3.65;;;;;;;5.17;78.61;102698.22;5100670;28;20109;-87
2021/12/20 10:24:55;;;;;;;18.35;4.00;;;;;;;5.18;77.47;102703.53;5102618;28;20108;-86
2021/12/20 10:27:28;;;;;;;15.13;4.05;;;;;;;5.24;79.14;102705.28;5104478;28;20058;-87
2021/12/20 10:29:53;;;;;;;14.07;5.10;;;;;;;5.28;77.76;102696.47;5096235;28;20032;-87
2021/12/20 10:32:39;;;;;;;15.88;3.92;;;;;;;5.33;77.81;102689.44;5098624;28;20056;-87
2021/12/20 10:35:27;;;;;;;16.45;3.90;;;;;;;5.36;78.34;102691.22;5103505;28;20062;-87
2021/12/20 10:37:54;;;;;;;17.23;3.92;;;;;;;5.41;78.65;102692.09;5104868;28;20088;-87
2021/12/20 10:40:20;;;;;;;12.70;4.05;;;;;;;5.43;77.57;102691.22;5103306;28;20032;-86
2021/12/20 10:42:45;;;;;;;19.92;3.75;;;;;;;5.48;76.79;102694.72;5089501;28;20070;-87
2021/12/20 10:45:17;;;;;;;19.13;3.88;;;;;;;5.50;76.92;102700.88;5087253;28;20076;-87
2021/12/20 10:47:44;;;;;;;19.75;4.00;;;;;;;5.53;78.35;102693.84;5071850;28;20163;-87
2021/12/20 10:50:42;;;;;;;12.25;3.70;;;;;;;5.61;78.90;102697.38;5084705;28;20077;-87
2021/12/20 10:53:23;;;;;;;13.70;4.10;;;;;;;5.63;77.95;102698.22;5084880;28;20282;-87
2021/12/20 10:55:56;;;;;;;13.90;3.88;;;;;;;5.60;78.63;102683.28;5084480;28;20583;-87
2021/12/20 10:58:33;;;;;;;15.52;3.58;;;;;;;5.73;77.62;102700.88;5105860;28;20164;-87
2021/12/20 11:02:01;;;;;;;13.05;3.88;;;;;;;5.78;78.23;102698.22;5105058;28;20062;-87
2021/12/20 11:04:26;;;;;;;17.00;4.43;;;;;;;5.85;77.86;102677.94;5106441;28;20116;-85
2021/12/20 11:09:04;;;;;;;12.70;3.75;;;;;;;5.94;77.04;102691.19;5107064;28;20031;-85
2021/12/20 11:09:59;;;;;;;17.00;3.67;;;;;;;6.04;76.87;102689.41;5101637;28;20127;-85
2021/12/20 11:12:31;;;;;;;19.42;4.25;;;;;;;6.09;76.17;102691.13;5095704;28;20035;-84
2021/12/20 11:15:15;;;;;;;18.70;4.45;;;;;;;6.16;77.04;102689.38;5095728;28;20047;-87
2021/12/20 11:17:44;;;;;;;17.67;3.78;;;;;;;6.25;75.50;102694.63;5087675;28;20035;-87
2021/12/20 11:20:09;;;;;;;15.32;4.13;;;;;;;6.22;74.79;102681.41;5087268;28;20039;-85
2021/12/20 11:22:34;;;;;;;14.88;3.92;;;;;;;6.26;76.54;102676.97;5086571;28;20032;-85
2021/12/20 11:25:06;;;;;;;15.70;4.13;;;;;;;6.22;75.58;102679.63;5087284;28;20031;-84
2021/12/20 11:27:42;;;;;;;19.27;4.28;;;;;;;6.17;75.48;102675.25;5087752;28;20127;-85
2021/12/20 11:30:14;;;;;;;14.40;4.10;;;;;;;6.12;75.54;102683.19;5087399;28;20028;-84
2021/12/20 11:32:41;;;;;;;18.02;3.90;;;;;;;6.15;74.69;102688.47;5087851;28;20056;-85
2021/12/20 11:35:07;;;;;;;20.15;3.88;;;;;;;6.17;74.87;102686.69;5087119;28;20031;-85
2021/12/20 11:37:32;;;;;;;18.10;4.10;;;;;;;6.17;75.33;102680.53;5088793;28;20032;-85
2021/12/20 11:40:02;;;;;;;16.52;4.28;;;;;;;6.15;75.70;102679.69;5087114;28;20024;-85
2021/12/20 11:42:28;;;;;;;24.42;6.30;;;;;;;6.05;75.19;102681.44;5099427;28;20042;-85